RYR900A LKPR-EBCI
Flight info
| Callsign | RYR900A |
|---|---|
| Flight time | 1h 5m |
| Altitude | 32000 |
| Route | BALTU DCT DONAD DCT RAPET Z93 KODUK DCT MARZA DCT TEKTU DCT TESGA DCT UMUPU T880 BATTY |
| Aircraft | B738/M-SDE3FGILRWY/SB1 |
Departure
| Time | 2026-05-06 18:52 |
|---|---|
| Airport | Václav Havel Airport Prague (LKPR) |
Arrival
| Time | 2026-05-06 19:57 |
|---|---|
| Airport | Brussels South Charleroi Airport (EBCI) |
| Time | Latitude | Longitude | Altitude | Speed | Heading |
|---|---|---|---|---|---|
| 2026-05-06 17:58 | 50.10717 | 14.26032 | 1171 ft | 0 kts | 124° |
| 2026-05-06 18:26 | 50.10714 | 14.26037 | 1172 ft | 2 kts | 124° |
| 2026-05-06 18:26 | 50.10685 | 14.26089 | 1173 ft | 10 kts | 147° |
| 2026-05-06 18:26 | 50.10609 | 14.26050 | 1176 ft | 14 kts | 210° |
| 2026-05-06 18:26 | 50.10533 | 14.25961 | 1181 ft | 13 kts | 240° |
| 2026-05-06 18:27 | 50.10563 | 14.25834 | 1182 ft | 13 kts | 302° |
| 2026-05-06 18:27 | 50.10607 | 14.25724 | 1179 ft | 6 kts | 299° |
| 2026-05-06 18:27 | 50.10622 | 14.25683 | 1178 ft | 2 kts | 299° |
| 2026-05-06 18:27 | 50.10625 | 14.25674 | 1178 ft | 0 kts | 299° |
| 2026-05-06 18:30 | 50.10626 | 14.25673 | 1178 ft | 1 kts | 299° |
| 2026-05-06 18:30 | 50.10637 | 14.25640 | 1177 ft | 9 kts | 298° |
| 2026-05-06 18:30 | 50.10680 | 14.25519 | 1174 ft | 14 kts | 299° |
| 2026-05-06 18:30 | 50.10716 | 14.25419 | 1173 ft | 7 kts | 299° |
| 2026-05-06 18:31 | 50.10721 | 14.25406 | 1170 ft | 0 kts | 299° |
| 2026-05-06 18:31 | 50.10721 | 14.25405 | 1170 ft | 0 kts | 299° |
| 2026-05-06 18:31 | 50.10722 | 14.25402 | 1170 ft | 1 kts | 299° |
| 2026-05-06 18:32 | 50.10727 | 14.25388 | 1171 ft | 2 kts | 298° |
| 2026-05-06 18:32 | 50.10738 | 14.25360 | 1170 ft | 4 kts | 300° |
| 2026-05-06 18:32 | 50.10756 | 14.25307 | 1169 ft | 7 kts | 299° |
| 2026-05-06 18:32 | 50.10762 | 14.25292 | 1170 ft | 1 kts | 299° |
| 2026-05-06 18:33 | 50.10766 | 14.25281 | 1168 ft | 2 kts | 299° |
| 2026-05-06 18:33 | 50.10773 | 14.25260 | 1168 ft | 2 kts | 298° |
| 2026-05-06 18:33 | 50.10775 | 14.25253 | 1167 ft | 0 kts | 298° |
| 2026-05-06 18:35 | 50.10776 | 14.25253 | 1167 ft | 0 kts | 298° |
| 2026-05-06 18:37 | 50.10776 | 14.25252 | 1167 ft | 0 kts | 298° |
| 2026-05-06 18:37 | 50.10782 | 14.25234 | 1144 ft | 6 kts | 299° |
| 2026-05-06 18:37 | 50.10793 | 14.25202 | 1167 ft | 0 kts | 296° |
| 2026-05-06 18:45 | 50.10797 | 14.25191 | 1171 ft | 5 kts | 296° |
| 2026-05-06 18:45 | 50.10813 | 14.25096 | 1172 ft | 10 kts | 277° |
| 2026-05-06 18:45 | 50.10814 | 14.25079 | 1172 ft | 0 kts | 276° |
| 2026-05-06 18:50 | 50.10817 | 14.25028 | 1171 ft | 12 kts | 275° |
| 2026-05-06 18:50 | 50.10815 | 14.24805 | 1168 ft | 27 kts | 264° |
| 2026-05-06 18:51 | 50.10747 | 14.24650 | 1169 ft | 11 kts | 146° |
| 2026-05-06 18:51 | 50.10700 | 14.24744 | 1168 ft | 11 kts | 126° |
| 2026-05-06 18:51 | 50.10613 | 14.24924 | 1169 ft | 48 kts | 128° |
| 2026-05-06 18:51 | 50.10277 | 14.25619 | 1185 ft | 110 kts | 127° |
| 2026-05-06 18:52 | 50.09712 | 14.26799 | 1227 ft | 158 kts | 124° |
| 2026-05-06 18:52 | 50.08991 | 14.28280 | 1585 ft | 181 kts | 125° |
| 2026-05-06 18:52 | 50.08214 | 14.29900 | 2356 ft | 186 kts | 125° |
| 2026-05-06 18:52 | 50.07450 | 14.31534 | 3135 ft | 192 kts | 125° |
| 2026-05-06 18:53 | 50.06617 | 14.33328 | 3447 ft | 219 kts | 128° |
| 2026-05-06 18:53 | 50.05629 | 14.35291 | 3727 ft | 245 kts | 128° |
| 2026-05-06 18:53 | 50.04539 | 14.37491 | 4238 ft | 264 kts | 129° |
| 2026-05-06 18:53 | 50.03411 | 14.39795 | 4807 ft | 269 kts | 128° |
| 2026-05-06 18:54 | 50.01375 | 14.43973 | 5610 ft | 277 kts | 129° |
| 2026-05-06 18:54 | 50.00411 | 14.46549 | 6525 ft | 280 kts | 109° |
| 2026-05-06 18:54 | 50.00287 | 14.49598 | 7314 ft | 290 kts | 81° |
| 2026-05-06 18:54 | 50.01129 | 14.52471 | 8023 ft | 300 kts | 50° |
| 2026-05-06 18:55 | 50.03665 | 14.55689 | 9206 ft | 307 kts | 35° |
| 2026-05-06 18:55 | 50.06543 | 14.58921 | 10195 ft | 324 kts | 35° |
| 2026-05-06 18:55 | 50.08440 | 14.61066 | 10370 ft | 349 kts | 35° |
| 2026-05-06 18:55 | 50.10501 | 14.63263 | 10636 ft | 367 kts | 26° |
| 2026-05-06 18:56 | 50.12951 | 14.64332 | 11237 ft | 368 kts | 0° |
| 2026-05-06 18:56 | 50.15471 | 14.63900 | 12014 ft | 363 kts | 339° |
| 2026-05-06 18:56 | 50.17672 | 14.62123 | 12934 ft | 354 kts | 318° |
| 2026-05-06 18:56 | 50.19329 | 14.59351 | 13728 ft | 350 kts | 298° |
| 2026-05-06 18:57 | 50.20317 | 14.55911 | 14410 ft | 348 kts | 281° |
| 2026-05-06 18:57 | 50.20622 | 14.50779 | 15410 ft | 348 kts | 268° |
| 2026-05-06 18:57 | 50.20605 | 14.35398 | 18287 ft | 362 kts | 266° |
| 2026-05-06 18:57 | 50.20529 | 14.19300 | 20714 ft | 377 kts | 266° |
| 2026-05-06 18:58 | 50.20509 | 14.02718 | 23086 ft | 389 kts | 265° |
| 2026-05-06 18:58 | 50.20472 | 13.85599 | 25119 ft | 398 kts | 266° |
| 2026-05-06 18:58 | 50.20433 | 13.74109 | 26582 ft | 397 kts | 265° |
| 2026-05-06 18:58 | 50.20415 | 13.69824 | 27317 ft | 392 kts | 265° |
| 2026-05-06 18:59 | 50.20395 | 13.65570 | 27700 ft | 393 kts | 265° |
| 2026-05-06 18:59 | 50.20373 | 13.61316 | 27740 ft | 390 kts | 265° |
| 2026-05-06 18:59 | 50.20350 | 13.57086 | 27753 ft | 389 kts | 265° |
| 2026-05-06 18:59 | 50.20324 | 13.52858 | 27758 ft | 390 kts | 265° |
| 2026-05-06 19:00 | 50.20298 | 13.48734 | 27760 ft | 390 kts | 265° |
| 2026-05-06 19:00 | 50.20269 | 13.44386 | 27767 ft | 391 kts | 265° |
| 2026-05-06 19:00 | 50.20239 | 13.40143 | 27766 ft | 391 kts | 265° |
| 2026-05-06 19:00 | 50.20208 | 13.35893 | 27798 ft | 393 kts | 265° |
| 2026-05-06 19:01 | 50.20175 | 13.31607 | 28191 ft | 395 kts | 265° |
| 2026-05-06 19:01 | 50.20144 | 13.27344 | 28909 ft | 390 kts | 265° |
| 2026-05-06 19:01 | 50.20113 | 13.23149 | 29699 ft | 384 kts | 265° |
| 2026-05-06 19:01 | 50.20082 | 13.19014 | 30378 ft | 378 kts | 265° |
| 2026-05-06 19:02 | 50.20049 | 13.14987 | 30924 ft | 375 kts | 265° |
| 2026-05-06 19:02 | 50.20013 | 13.10926 | 31411 ft | 374 kts | 265° |
| 2026-05-06 19:02 | 50.19974 | 13.06870 | 31759 ft | 375 kts | 265° |
| 2026-05-06 19:03 | 50.19893 | 12.98690 | 31773 ft | 374 kts | 265° |
| 2026-05-06 19:03 | 50.19938 | 12.90616 | 31771 ft | 379 kts | 271° |
| 2026-05-06 19:04 | 50.20667 | 12.82459 | 31776 ft | 380 kts | 273° |
| 2026-05-06 19:04 | 50.21440 | 12.74309 | 31786 ft | 380 kts | 273° |
| 2026-05-06 19:05 | 50.22184 | 12.66146 | 31779 ft | 380 kts | 272° |
| 2026-05-06 19:05 | 50.22905 | 12.57989 | 31779 ft | 379 kts | 272° |
| 2026-05-06 19:06 | 50.23612 | 12.49829 | 31799 ft | 379 kts | 272° |
| 2026-05-06 19:06 | 50.24311 | 12.41661 | 31801 ft | 380 kts | 272° |
| 2026-05-06 19:07 | 50.25007 | 12.33464 | 31791 ft | 380 kts | 272° |
| 2026-05-06 19:07 | 50.25696 | 12.25272 | 31791 ft | 381 kts | 272° |
| 2026-05-06 19:08 | 50.26382 | 12.17059 | 31795 ft | 381 kts | 272° |
| 2026-05-06 19:08 | 50.27062 | 12.08836 | 31802 ft | 381 kts | 272° |
| 2026-05-06 19:09 | 50.27736 | 12.00608 | 31811 ft | 383 kts | 272° |
| 2026-05-06 19:09 | 50.28407 | 11.92354 | 31809 ft | 383 kts | 272° |
| 2026-05-06 19:10 | 50.29072 | 11.84091 | 31798 ft | 383 kts | 272° |
| 2026-05-06 19:10 | 50.29731 | 11.75844 | 31798 ft | 382 kts | 271° |
| 2026-05-06 19:11 | 50.30382 | 11.67624 | 31800 ft | 380 kts | 271° |
| 2026-05-06 19:11 | 50.31024 | 11.59426 | 31804 ft | 379 kts | 271° |
| 2026-05-06 19:12 | 50.31660 | 11.51211 | 31809 ft | 381 kts | 271° |
| 2026-05-06 19:12 | 50.32294 | 11.42954 | 31806 ft | 383 kts | 271° |
| 2026-05-06 19:13 | 50.32927 | 11.34648 | 31802 ft | 385 kts | 271° |
| 2026-05-06 19:13 | 50.33555 | 11.26319 | 31790 ft | 386 kts | 271° |
| 2026-05-06 19:14 | 50.34180 | 11.17955 | 31794 ft | 387 kts | 271° |
| 2026-05-06 19:14 | 50.34799 | 11.09590 | 31798 ft | 387 kts | 271° |
| 2026-05-06 19:15 | 50.35407 | 11.01226 | 31781 ft | 387 kts | 270° |
| 2026-05-06 19:15 | 50.36017 | 10.92838 | 31792 ft | 388 kts | 270° |
| 2026-05-06 19:16 | 50.36623 | 10.84428 | 31800 ft | 389 kts | 270° |
| 2026-05-06 19:16 | 50.37221 | 10.75990 | 31792 ft | 391 kts | 270° |
| 2026-05-06 19:17 | 50.37813 | 10.67569 | 31787 ft | 391 kts | 270° |
| 2026-05-06 19:17 | 50.38408 | 10.59017 | 31802 ft | 393 kts | 270° |
| 2026-05-06 19:18 | 50.38994 | 10.50491 | 31789 ft | 394 kts | 270° |
| 2026-05-06 19:18 | 50.39571 | 10.42016 | 31796 ft | 394 kts | 270° |
| 2026-05-06 19:19 | 50.40145 | 10.33489 | 31794 ft | 393 kts | 270° |
| 2026-05-06 19:19 | 50.40712 | 10.24965 | 31796 ft | 393 kts | 270° |
| 2026-05-06 19:20 | 50.41276 | 10.16383 | 31795 ft | 393 kts | 271° |
| 2026-05-06 19:20 | 50.41828 | 10.07899 | 31802 ft | 394 kts | 271° |
| 2026-05-06 19:21 | 50.42376 | 9.99356 | 31796 ft | 396 kts | 271° |
| 2026-05-06 19:21 | 50.42923 | 9.90748 | 31805 ft | 396 kts | 271° |
| 2026-05-06 19:22 | 50.43463 | 9.82146 | 31794 ft | 396 kts | 271° |
| 2026-05-06 19:22 | 50.43996 | 9.73552 | 31807 ft | 396 kts | 271° |
| 2026-05-06 19:23 | 50.44525 | 9.64936 | 31806 ft | 397 kts | 271° |
| 2026-05-06 19:23 | 50.45048 | 9.56292 | 31807 ft | 398 kts | 271° |
| 2026-05-06 19:24 | 50.45565 | 9.47641 | 31811 ft | 399 kts | 271° |
| 2026-05-06 19:24 | 50.46077 | 9.38969 | 31805 ft | 399 kts | 271° |
| 2026-05-06 19:25 | 50.46583 | 9.30296 | 31805 ft | 399 kts | 271° |
| 2026-05-06 19:25 | 50.46998 | 9.23084 | 31820 ft | 399 kts | 271° |
| 2026-05-06 19:26 | 50.47492 | 9.14399 | 31811 ft | 399 kts | 271° |
| 2026-05-06 19:26 | 50.47980 | 9.05710 | 31820 ft | 399 kts | 271° |
| 2026-05-06 19:27 | 50.48461 | 8.97028 | 31813 ft | 399 kts | 271° |
| 2026-05-06 19:27 | 50.48935 | 8.88347 | 31818 ft | 399 kts | 271° |
| 2026-05-06 19:28 | 50.49402 | 8.79669 | 31819 ft | 398 kts | 271° |
| 2026-05-06 19:28 | 50.49863 | 8.70997 | 31818 ft | 398 kts | 271° |
| 2026-05-06 19:29 | 50.50316 | 8.62336 | 31826 ft | 398 kts | 271° |
| 2026-05-06 19:29 | 50.50764 | 8.53659 | 31829 ft | 398 kts | 271° |
| 2026-05-06 19:30 | 50.51205 | 8.44995 | 31827 ft | 398 kts | 271° |
| 2026-05-06 19:30 | 50.51639 | 8.36323 | 31848 ft | 398 kts | 271° |
| 2026-05-06 19:31 | 50.52067 | 8.27636 | 31840 ft | 399 kts | 271° |
| 2026-05-06 19:31 | 50.52699 | 8.14597 | 31851 ft | 399 kts | 271° |
| 2026-05-06 19:32 | 50.53113 | 8.05882 | 31847 ft | 400 kts | 271° |
| 2026-05-06 19:32 | 50.53317 | 8.01516 | 31605 ft | 403 kts | 271° |
| 2026-05-06 19:32 | 50.53521 | 7.97126 | 31254 ft | 402 kts | 271° |
| 2026-05-06 19:33 | 50.53724 | 7.92746 | 30877 ft | 402 kts | 271° |
| 2026-05-06 19:33 | 50.53924 | 7.88360 | 30511 ft | 402 kts | 271° |
| 2026-05-06 19:33 | 50.54123 | 7.83982 | 30103 ft | 403 kts | 271° |
| 2026-05-06 19:33 | 50.54321 | 7.79580 | 29667 ft | 403 kts | 271° |
| 2026-05-06 19:34 | 50.54517 | 7.75182 | 29182 ft | 404 kts | 271° |
| 2026-05-06 19:34 | 50.54712 | 7.70769 | 28702 ft | 404 kts | 271° |
| 2026-05-06 19:34 | 50.54906 | 7.66363 | 28232 ft | 404 kts | 271° |
| 2026-05-06 19:34 | 50.55098 | 7.61960 | 27783 ft | 404 kts | 271° |
| 2026-05-06 19:35 | 50.55288 | 7.57548 | 27329 ft | 404 kts | 271° |
| 2026-05-06 19:35 | 50.55477 | 7.53141 | 26929 ft | 404 kts | 272° |
| 2026-05-06 19:35 | 50.55665 | 7.48723 | 26893 ft | 408 kts | 272° |
| 2026-05-06 19:35 | 50.55852 | 7.44259 | 26882 ft | 409 kts | 272° |
| 2026-05-06 19:36 | 50.55998 | 7.39802 | 26869 ft | 407 kts | 270° |
| 2026-05-06 19:36 | 50.56033 | 7.35359 | 26881 ft | 406 kts | 269° |
| 2026-05-06 19:36 | 50.56033 | 7.30911 | 26875 ft | 407 kts | 268° |
| 2026-05-06 19:36 | 50.56042 | 7.26478 | 26876 ft | 408 kts | 269° |
| 2026-05-06 19:37 | 50.56066 | 7.22020 | 26866 ft | 408 kts | 269° |
| 2026-05-06 19:37 | 50.56096 | 7.17554 | 26880 ft | 408 kts | 269° |
| 2026-05-06 19:37 | 50.56068 | 7.13092 | 26875 ft | 408 kts | 266° |
| 2026-05-06 19:37 | 50.55949 | 7.08640 | 26879 ft | 407 kts | 266° |
| 2026-05-06 19:38 | 50.55818 | 7.04233 | 26870 ft | 407 kts | 266° |
| 2026-05-06 19:38 | 50.55699 | 6.99758 | 26874 ft | 407 kts | 266° |
| 2026-05-06 19:38 | 50.55592 | 6.95310 | 26886 ft | 407 kts | 266° |
| 2026-05-06 19:38 | 50.55483 | 6.90864 | 26876 ft | 408 kts | 266° |
| 2026-05-06 19:39 | 50.55367 | 6.86409 | 26884 ft | 408 kts | 266° |
| 2026-05-06 19:39 | 50.55249 | 6.81949 | 26882 ft | 409 kts | 266° |
| 2026-05-06 19:39 | 50.55129 | 6.77470 | 26891 ft | 409 kts | 266° |
| 2026-05-06 19:39 | 50.55007 | 6.72992 | 26592 ft | 413 kts | 266° |
| 2026-05-06 19:40 | 50.54991 | 6.68469 | 26143 ft | 413 kts | 273° |
| 2026-05-06 19:40 | 50.55417 | 6.64009 | 25717 ft | 411 kts | 278° |
| 2026-05-06 19:40 | 50.55978 | 6.59619 | 25298 ft | 409 kts | 279° |
| 2026-05-06 19:40 | 50.56543 | 6.55270 | 24882 ft | 406 kts | 280° |
| 2026-05-06 19:41 | 50.57097 | 6.50916 | 24473 ft | 403 kts | 280° |
| 2026-05-06 19:41 | 50.57621 | 6.46693 | 24065 ft | 403 kts | 280° |
| 2026-05-06 19:41 | 50.58152 | 6.42328 | 23665 ft | 402 kts | 280° |
| 2026-05-06 19:41 | 50.58672 | 6.38014 | 23237 ft | 401 kts | 280° |
| 2026-05-06 19:42 | 50.59189 | 6.33698 | 22768 ft | 400 kts | 280° |
| 2026-05-06 19:42 | 50.59701 | 6.29408 | 22312 ft | 398 kts | 280° |
| 2026-05-06 19:42 | 50.60208 | 6.25142 | 21918 ft | 392 kts | 279° |
| 2026-05-06 19:42 | 50.60704 | 6.20948 | 21577 ft | 389 kts | 280° |
| 2026-05-06 19:43 | 50.61199 | 6.16746 | 20929 ft | 390 kts | 280° |
| 2026-05-06 19:43 | 50.61690 | 6.12561 | 20441 ft | 388 kts | 280° |
| 2026-05-06 19:43 | 50.62177 | 6.08401 | 19942 ft | 385 kts | 280° |
| 2026-05-06 19:43 | 50.62658 | 6.04281 | 19453 ft | 381 kts | 280° |
| 2026-05-06 19:44 | 50.63132 | 6.00199 | 18966 ft | 377 kts | 280° |
| 2026-05-06 19:44 | 50.63604 | 5.96147 | 18502 ft | 374 kts | 281° |
| 2026-05-06 19:44 | 50.64067 | 5.92146 | 18004 ft | 370 kts | 280° |
| 2026-05-06 19:44 | 50.64520 | 5.88166 | 17464 ft | 367 kts | 279° |
| 2026-05-06 19:45 | 50.64696 | 5.84173 | 16915 ft | 365 kts | 270° |
| 2026-05-06 19:45 | 50.64652 | 5.80192 | 16400 ft | 362 kts | 269° |
| 2026-05-06 19:45 | 50.64579 | 5.76245 | 15899 ft | 360 kts | 269° |
| 2026-05-06 19:45 | 50.64507 | 5.72313 | 15390 ft | 358 kts | 269° |
| 2026-05-06 19:46 | 50.64443 | 5.68408 | 14889 ft | 355 kts | 269° |
| 2026-05-06 19:46 | 50.64388 | 5.64533 | 14393 ft | 354 kts | 270° |
| 2026-05-06 19:46 | 50.64339 | 5.60673 | 13950 ft | 352 kts | 270° |
| 2026-05-06 19:46 | 50.64293 | 5.56822 | 13421 ft | 350 kts | 270° |
| 2026-05-06 19:47 | 50.64248 | 5.53002 | 12897 ft | 348 kts | 270° |
| 2026-05-06 19:47 | 50.64203 | 5.49206 | 12375 ft | 346 kts | 270° |
| 2026-05-06 19:47 | 50.64157 | 5.45419 | 11863 ft | 345 kts | 270° |
| 2026-05-06 19:47 | 50.64111 | 5.41658 | 11357 ft | 343 kts | 270° |
| 2026-05-06 19:48 | 50.64064 | 5.37908 | 10861 ft | 342 kts | 270° |
| 2026-05-06 19:48 | 50.64016 | 5.34177 | 10371 ft | 340 kts | 269° |
| 2026-05-06 19:48 | 50.63966 | 5.30459 | 9887 ft | 339 kts | 269° |
| 2026-05-06 19:48 | 50.63916 | 5.26757 | 9353 ft | 337 kts | 270° |
| 2026-05-06 19:49 | 50.63865 | 5.23121 | 8818 ft | 327 kts | 270° |
| 2026-05-06 19:49 | 50.63815 | 5.19601 | 8292 ft | 317 kts | 270° |
| 2026-05-06 19:49 | 50.63766 | 5.16180 | 7781 ft | 309 kts | 270° |
| 2026-05-06 19:49 | 50.63717 | 5.12836 | 7264 ft | 301 kts | 270° |
| 2026-05-06 19:50 | 50.63666 | 5.09578 | 6788 ft | 294 kts | 270° |
| 2026-05-06 19:50 | 50.63580 | 5.06420 | 6428 ft | 284 kts | 264° |
| 2026-05-06 19:50 | 50.62970 | 5.03498 | 6070 ft | 278 kts | 248° |
| 2026-05-06 19:50 | 50.62164 | 5.00776 | 5701 ft | 271 kts | 248° |
| 2026-05-06 19:51 | 50.61367 | 4.98104 | 5346 ft | 267 kts | 248° |
| 2026-05-06 19:51 | 50.60583 | 4.95457 | 4990 ft | 267 kts | 248° |
| 2026-05-06 19:51 | 50.59807 | 4.92821 | 4627 ft | 266 kts | 248° |
| 2026-05-06 19:51 | 50.59029 | 4.90176 | 4256 ft | 266 kts | 248° |
| 2026-05-06 19:52 | 50.58268 | 4.87537 | 3894 ft | 264 kts | 250° |
| 2026-05-06 19:52 | 50.57544 | 4.84915 | 3524 ft | 258 kts | 249° |
| 2026-05-06 19:52 | 50.56832 | 4.82432 | 3398 ft | 244 kts | 248° |
| 2026-05-06 19:52 | 50.56145 | 4.80087 | 3404 ft | 229 kts | 248° |
| 2026-05-06 19:53 | 50.55493 | 4.77868 | 3399 ft | 218 kts | 248° |
| 2026-05-06 19:53 | 50.54869 | 4.75740 | 3410 ft | 212 kts | 248° |
| 2026-05-06 19:53 | 50.54255 | 4.73644 | 3400 ft | 212 kts | 249° |
| 2026-05-06 19:53 | 50.53637 | 4.71533 | 3395 ft | 211 kts | 249° |
| 2026-05-06 19:54 | 50.53025 | 4.69443 | 3384 ft | 210 kts | 249° |
| 2026-05-06 19:54 | 50.52426 | 4.67398 | 3374 ft | 202 kts | 249° |
| 2026-05-06 19:54 | 50.51847 | 4.65418 | 3191 ft | 196 kts | 249° |
| 2026-05-06 19:54 | 50.51290 | 4.63511 | 2928 ft | 187 kts | 248° |
| 2026-05-06 19:55 | 50.50766 | 4.61717 | 2663 ft | 176 kts | 248° |
| 2026-05-06 19:55 | 50.50278 | 4.60048 | 2471 ft | 163 kts | 248° |
| 2026-05-06 19:55 | 50.49816 | 4.58435 | 2223 ft | 163 kts | 248° |
| 2026-05-06 19:55 | 50.49335 | 4.56815 | 2045 ft | 165 kts | 248° |
| 2026-05-06 19:56 | 50.48852 | 4.55150 | 1805 ft | 169 kts | 248° |
| 2026-05-06 19:56 | 50.48368 | 4.53494 | 1480 ft | 163 kts | 248° |
| 2026-05-06 19:56 | 50.47911 | 4.51926 | 1282 ft | 155 kts | 248° |
| 2026-05-06 19:56 | 50.47466 | 4.50409 | 1060 ft | 153 kts | 249° |
| 2026-05-06 19:57 | 50.47038 | 4.48881 | 853 ft | 152 kts | 248° |
| 2026-05-06 19:57 | 50.46597 | 4.47402 | 668 ft | 150 kts | 247° |
| 2026-05-06 19:57 | 50.46191 | 4.45958 | 591 ft | 133 kts | 246° |
| 2026-05-06 19:57 | 50.45900 | 4.44994 | 592 ft | 44 kts | 243° |
| 2026-05-06 19:58 | 50.45906 | 4.44809 | 596 ft | 11 kts | 325° |
| 2026-05-06 19:58 | 50.45934 | 4.44787 | 596 ft | 0 kts | 335° |
| 2026-05-06 19:59 | 50.45953 | 4.44774 | 595 ft | 10 kts | 339° |
| 2026-05-06 20:00 | 50.46039 | 4.44846 | 596 ft | 18 kts | 67° |
| 2026-05-06 20:00 | 50.46090 | 4.45022 | 595 ft | 17 kts | 63° |
| 2026-05-06 20:00 | 50.46147 | 4.45186 | 598 ft | 17 kts | 59° |
| 2026-05-06 20:00 | 50.46194 | 4.45349 | 598 ft | 16 kts | 74° |
| 2026-05-06 20:01 | 50.46231 | 4.45512 | 598 ft | 16 kts | 66° |
| 2026-05-06 20:01 | 50.46275 | 4.45664 | 597 ft | 15 kts | 65° |
| 2026-05-06 20:01 | 50.46318 | 4.45813 | 596 ft | 15 kts | 65° |
| 2026-05-06 20:01 | 50.46360 | 4.45955 | 596 ft | 14 kts | 65° |
| 2026-05-06 20:02 | 50.46406 | 4.46113 | 591 ft | 17 kts | 65° |
| 2026-05-06 20:02 | 50.46457 | 4.46287 | 590 ft | 18 kts | 65° |
| 2026-05-06 20:02 | 50.46511 | 4.46474 | 588 ft | 15 kts | 65° |
| 2026-05-06 20:02 | 50.46575 | 4.46554 | 590 ft | 13 kts | 350° |
| 2026-05-06 20:03 | 50.46653 | 4.46565 | 588 ft | 13 kts | 56° |
| 2026-05-06 20:03 | 50.46691 | 4.46692 | 587 ft | 13 kts | 65° |
| 2026-05-06 20:03 | 50.46730 | 4.46826 | 586 ft | 15 kts | 65° |
| 2026-05-06 20:03 | 50.46775 | 4.46980 | 584 ft | 11 kts | 65° |
| 2026-05-06 20:04 | 50.46806 | 4.47019 | 584 ft | 1 kts | 331° |
| 2026-05-06 20:04 | 50.46815 | 4.47007 | 584 ft | 2 kts | 325° |
| 2026-05-06 20:04 | 50.46827 | 4.46995 | 584 ft | 3 kts | 331° |
| 2026-05-06 20:04 | 50.46840 | 4.46986 | 584 ft | 0 kts | 335° |
| 2026-05-06 20:05 | 50.46841 | 4.46985 | 584 ft | 0 kts | 335° |